Time;durP1;ratioP1;P1;durP2;ratioP2;P2;SDS_P1;SDS_P2;PMS_P1;PMS_P2;Temp;Humidity;BMP_temperature;BMP_pressure;BME280_temperature;BME280_humidity;BME280_pressure;Samples;Min_cycle;Max_cycle;Signal;HPM_P1;HPM_P2
2023/05/15 00:01:43;;;;;;;11.77;6.40;;;9.00;99.90;;;;;;5000623;28;20548;-57
2023/05/15 00:04:08;;;;;;;10.87;6.23;;;9.00;99.90;;;;;;5001055;28;20657;-57
2023/05/15 00:06:34;;;;;;;10.83;6.90;;;9.00;99.90;;;;;;4993211;28;20205;-57
2023/05/15 00:09:00;;;;;;;10.73;6.80;;;8.90;99.90;;;;;;4997113;28;20699;-57
2023/05/15 00:11:26;;;;;;;25.57;7.80;;;8.90;99.90;;;;;;5006048;28;20208;-56
2023/05/15 00:13:52;;;;;;;11.77;6.83;;;8.90;99.90;;;;;;5001642;28;20598;-56
2023/05/15 00:16:18;;;;;;;11.17;5.97;;;8.90;99.90;;;;;;5003212;28;20491;-56
2023/05/15 00:18:44;;;;;;;10.40;6.80;;;8.80;99.90;;;;;;5006885;28;20959;-56
2023/05/15 00:21:10;;;;;;;8.23;6.07;;;8.80;99.90;;;;;;5003659;28;20692;-56
2023/05/15 00:23:36;;;;;;;8.23;5.90;;;8.80;99.90;;;;;;4998032;28;20936;-56
2023/05/15 00:26:01;;;;;;;7.73;5.77;;;8.80;99.90;;;;;;5001503;28;20865;-57
2023/05/15 00:28:27;;;;;;;13.07;6.57;;;8.70;99.90;;;;;;5001537;28;20196;-56
2023/05/15 00:30:52;;;;;;;9.70;5.30;;;8.80;99.90;;;;;;5006398;28;20188;-57
2023/05/15 00:33:18;;;;;;;8.80;6.23;;;8.70;99.90;;;;;;5000569;28;20647;-55
2023/05/15 00:35:44;;;;;;;9.60;5.77;;;8.70;99.90;;;;;;5004162;28;20180;-55
2023/05/15 00:38:10;;;;;;;12.43;6.33;;;8.60;99.90;;;;;;5005340;28;20176;-55
2023/05/15 00:40:37;;;;;;;7.13;5.50;;;8.60;99.90;;;;;;5003478;28;20466;-56
2023/05/15 00:43:04;;;;;;;12.30;7.00;;;8.60;99.90;;;;;;5002422;28;20200;-55
2023/05/15 00:45:31;;;;;;;12.33;6.13;;;8.60;99.90;;;;;;5004441;28;20438;-57
2023/05/15 00:48:00;;;;;;;40.23;7.43;;;8.60;99.90;;;;;;5003433;28;20804;-57
2023/05/15 00:50:26;;;;;;;8.03;5.50;;;8.50;99.90;;;;;;5004883;28;20484;-56
2023/05/15 00:52:54;;;;;;;9.33;6.93;;;8.50;99.90;;;;;;5006537;28;20517;-56
2023/05/15 00:55:19;;;;;;;7.43;6.17;;;8.50;99.90;;;;;;5004856;28;20442;-57
2023/05/15 00:57:47;;;;;;;16.13;6.23;;;8.50;99.90;;;;;;5003015;28;20439;-55
2023/05/15 01:00:15;;;;;;;48.03;7.77;;;8.50;99.90;;;;;;5003904;28;20200;-57
2023/05/15 01:02:41;;;;;;;22.00;6.77;;;8.50;99.90;;;;;;5009337;28;20783;-56
2023/05/15 01:05:07;;;;;;;127.17;10.67;;;8.50;99.90;;;;;;5005975;28;20423;-59
2023/05/15 01:07:47;;;;;;;13.43;6.30;;;8.40;99.90;;;;;;5008000;28;20191;-56
2023/05/15 01:10:15;;;;;;;20.93;6.40;;;8.40;99.90;;;;;;5006687;28;20507;-56
2023/05/15 01:12:43;;;;;;;56.03;7.50;;;8.40;99.90;;;;;;5005804;28;20465;-57
2023/05/15 01:15:09;;;;;;;67.23;8.33;;;8.40;99.90;;;;;;5006431;28;20860;-56
2023/05/15 01:17:35;;;;;;;24.83;6.50;;;8.40;99.90;;;;;;5003982;28;20847;-57
2023/05/15 01:20:05;;;;;;;62.37;7.80;;;8.40;99.90;;;;;;5009025;28;20521;-56
2023/05/15 01:22:40;;;;;;;18.43;5.63;;;8.40;99.90;;;;;;5002292;28;20607;-56
2023/05/15 01:25:44;;;;;;;8.43;6.27;;;8.40;99.90;;;;;;5009107;28;20481;-56
2023/05/15 01:28:16;;;;;;;11.13;6.60;;;8.50;99.90;;;;;;5009575;28;20411;-57
2023/05/15 01:30:43;;;;;;;14.60;6.27;;;8.50;99.90;;;;;;5005926;28;20830;-59
2023/05/15 01:33:23;;;;;;;12.77;6.30;;;8.50;99.90;;;;;;5005852;28;21109;-56
2023/05/15 01:35:58;;;;;;;213.33;17.30;;;8.50;99.90;;;;;;5006866;28;20518;-57
2023/05/15 01:38:29;;;;;;;178.23;16.93;;;8.50;99.90;;;;;;5008503;28;20431;-56
2023/05/15 01:41:02;;;;;;;38.23;9.80;;;8.50;99.90;;;;;;5001337;28;20959;-57
2023/05/15 01:43:32;;;;;;;14.50;8.70;;;8.40;99.90;;;;;;5007972;28;20445;-57
2023/05/15 01:45:58;;;;;;;30.30;9.83;;;8.50;99.90;;;;;;5001387;28;20424;-55
2023/05/15 01:48:25;;;;;;;15.53;10.23;;;8.50;99.90;;;;;;5008875;28;20578;-56
2023/05/15 01:50:56;;;;;;;19.87;11.33;;;8.50;99.90;;;;;;5008478;28;20953;-57
2023/05/15 01:53:23;;;;;;;33.37;11.13;;;8.50;99.90;;;;;;5006165;28;20453;-56
2023/05/15 01:55:49;;;;;;;31.13;12.30;;;8.50;99.90;;;;;;5005273;28;20428;-56
2023/05/15 01:58:15;;;;;;;21.53;11.80;;;8.50;99.90;;;;;;5007671;28;20431;-57
2023/05/15 02:00:41;;;;;;;56.67;11.17;;;8.50;99.90;;;;;;5007871;28;20439;-55
2023/05/15 02:03:08;;;;;;;143.83;14.10;;;8.50;99.90;;;;;;5007071;28;20490;-56
2023/05/15 02:05:34;;;;;;;55.53;9.37;;;8.50;99.90;;;;;;5008875;28;20172;-57
2023/05/15 02:08:02;;;;;;;22.13;9.80;;;8.50;99.90;;;;;;5003972;28;20478;-57
2023/05/15 02:10:28;;;;;;;20.13;10.00;;;8.40;99.90;;;;;;5007109;28;20422;-57
2023/05/15 02:12:54;;;;;;;24.10;10.30;;;8.40;99.90;;;;;;5006447;28;20447;-58
2023/05/15 02:15:22;;;;;;;91.87;12.10;;;8.40;99.90;;;;;;5008324;28;20423;-57
2023/05/15 02:17:47;;;;;;;33.90;10.33;;;8.50;99.90;;;;;;5007377;28;20463;-55
2023/05/15 02:20:13;;;;;;;15.27;7.77;;;8.40;99.90;;;;;;5001851;28;21166;-57
2023/05/15 02:22:39;;;;;;;16.57;7.33;;;8.50;99.90;;;;;;5008538;28;20198;-56
2023/05/15 02:25:05;;;;;;;12.17;7.10;;;8.40;99.90;;;;;;5005517;28;20503;-57
2023/05/15 02:27:54;;;;;;;39.07;7.63;;;8.40;99.90;;;;;;5001718;28;20195;-55
2023/05/15 02:31:01;;;;;;;60.27;7.87;;;8.40;99.90;;;;;;5011131;28;20415;-57
2023/05/15 02:34:03;;;;;;;15.00;6.00;;;8.30;99.90;;;;;;4995258;28;20438;-57
2023/05/15 02:36:32;;;;;;;10.23;7.10;;;8.30;99.90;;;;;;5005861;28;20450;-57
2023/05/15 02:38:59;;;;;;;20.30;6.70;;;8.30;99.90;;;;;;5007560;28;20531;-56
2023/05/15 02:41:25;;;;;;;30.93;6.57;;;8.30;99.90;;;;;;5002176;28;20451;-56
2023/05/15 02:43:54;;;;;;;9.83;6.00;;;8.30;99.90;;;;;;5006558;28;20419;-56
2023/05/15 02:46:20;;;;;;;9.63;6.00;;;8.20;99.90;;;;;;5007473;28;20800;-56
2023/05/15 02:48:47;;;;;;;9.97;6.10;;;8.20;99.90;;;;;;5007662;28;20507;-56
2023/05/15 02:51:13;;;;;;;17.63;8.03;;;8.20;99.90;;;;;;5006988;28;20459;-57
2023/05/15 02:53:40;;;;;;;14.37;6.40;;;8.20;99.90;;;;;;5000351;28;20427;-58
2023/05/15 02:56:06;;;;;;;31.73;7.57;;;8.30;99.90;;;;;;5005224;28;20435;-55
2023/05/15 02:58:32;;;;;;;14.07;7.67;;;8.30;99.90;;;;;;5006859;28;20447;-56
2023/05/15 03:00:58;;;;;;;11.00;7.37;;;8.30;99.90;;;;;;5003285;28;20435;-56
2023/05/15 03:03:24;;;;;;;8.87;6.77;;;8.30;99.90;;;;;;5008300;28;20418;-56
2023/05/15 03:05:49;;;;;;;12.37;6.90;;;8.30;99.90;;;;;;5007500;28;21935;-58
2023/05/15 03:08:15;;;;;;;15.10;7.30;;;8.30;99.90;;;;;;5005053;28;20179;-56
2023/05/15 03:10:41;;;;;;;12.80;5.57;;;8.30;99.90;;;;;;5002675;28;20485;-56
2023/05/15 03:13:06;;;;;;;6.90;5.50;;;8.30;99.90;;;;;;5008149;28;20197;-59
2023/05/15 03:15:32;;;;;;;9.80;5.87;;;8.30;99.90;;;;;;5006950;28;20638;-55
2023/05/15 03:17:57;;;;;;;10.87;6.47;;;8.30;99.90;;;;;;5004672;28;20526;-56
2023/05/15 03:20:24;;;;;;;6.80;4.97;;;8.30;99.90;;;;;;5008395;28;20204;-56
2023/05/15 03:22:49;;;;;;;8.03;5.80;;;8.30;99.90;;;;;;5008070;28;20528;-57
2023/05/15 03:25:15;;;;;;;6.73;5.07;;;8.30;99.90;;;;;;5001768;28;20445;-57
2023/05/15 03:27:41;;;;;;;7.17;5.10;;;8.30;99.90;;;;;;5006808;28;20213;-54
2023/05/15 03:30:07;;;;;;;11.60;6.33;;;8.30;99.90;;;;;;5008139;28;20168;-58
2023/05/15 03:32:32;;;;;;;8.87;4.70;;;8.30;99.90;;;;;;5006996;28;20192;-58
2023/05/15 03:34:58;;;;;;;8.17;4.83;;;8.20;99.90;;;;;;4988848;28;20436;-56
2023/05/15 03:37:24;;;;;;;7.33;4.80;;;8.20;99.90;;;;;;5005217;28;20253;-57
2023/05/15 03:39:49;;;;;;;8.37;5.33;;;8.20;99.90;;;;;;5006637;28;20681;-57
2023/05/15 03:42:21;;;;;;;6.63;4.40;;;8.20;99.90;;;;;;5003578;28;20296;-56
2023/05/15 03:44:46;;;;;;;4.80;4.30;;;8.20;99.90;;;;;;5005036;28;20188;-55
2023/05/15 03:47:12;;;;;;;13.10;7.27;;;8.20;99.90;;;;;;5001578;28;20427;-56
2023/05/15 03:49:37;;;;;;;5.63;4.67;;;8.10;99.90;;;;;;5004817;28;20207;-57
2023/05/15 03:52:03;;;;;;;7.50;4.40;;;8.10;99.90;;;;;;5004378;28;20212;-57
2023/05/15 03:54:29;;;;;;;4.93;4.43;;;8.10;99.90;;;;;;5003157;28;20683;-57
2023/05/15 03:56:56;;;;;;;6.60;5.60;;;8.10;99.90;;;;;;5003049;28;20619;-57
2023/05/15 03:59:21;;;;;;;7.97;4.37;;;8.20;99.90;;;;;;4998864;28;20244;-50
2023/05/15 04:01:47;;;;;;;5.03;4.57;;;8.10;99.90;;;;;;4999124;28;20447;-55
2023/05/15 04:04:13;;;;;;;8.20;4.77;;;8.10;99.90;;;;;;5000650;28;20222;-55
2023/05/15 04:06:38;;;;;;;7.33;4.80;;;8.10;99.90;;;;;;5004203;28;20192;-57
2023/05/15 04:09:04;;;;;;;6.03;4.53;;;8.20;99.90;;;;;;4991280;28;20286;-55
2023/05/15 04:11:30;;;;;;;6.20;4.80;;;8.20;99.90;;;;;;4997674;28;20195;-58
2023/05/15 04:13:56;;;;;;;5.13;4.40;;;8.20;99.90;;;;;;4997151;28;20177;-55
2023/05/15 04:16:21;;;;;;;6.47;4.80;;;8.20;99.90;;;;;;4995624;28;20446;-55
2023/05/15 04:18:47;;;;;;;7.73;5.70;;;8.20;99.90;;;;;;5002098;28;20295;-54
2023/05/15 04:21:12;;;;;;;8.80;6.17;;;8.20;99.90;;;;;;4999684;28;20199;-57
2023/05/15 04:23:40;;;;;;;8.80;6.50;;;8.20;99.90;;;;;;5002469;28;20225;-57
2023/05/15 04:26:07;;;;;;;6.30;5.33;;;8.20;99.90;;;;;;4988418;28;20263;-56
2023/05/15 04:28:32;;;;;;;8.57;6.00;;;8.10;99.90;;;;;;4989989;28;20428;-56
2023/05/15 04:30:58;;;;;;;9.07;5.53;;;8.10;99.90;;;;;;4997963;28;22234;-57
2023/05/15 04:33:24;;;;;;;6.40;5.43;;;8.10;99.90;;;;;;5002456;28;20248;-56
2023/05/15 04:35:50;;;;;;;7.90;5.00;;;8.10;99.90;;;;;;4996702;28;20172;-57
2023/05/15 04:38:16;;;;;;;7.47;5.50;;;8.10;99.90;;;;;;5001524;28;20749;-56
2023/05/15 04:40:42;;;;;;;6.37;5.00;;;8.10;99.90;;;;;;5002604;28;20558;-56
2023/05/15 04:43:08;;;;;;;7.63;5.37;;;8.10;99.90;;;;;;5003123;28;20463;-56
2023/05/15 04:45:34;;;;;;;9.50;6.90;;;8.10;99.90;;;;;;4997203;28;20354;-57
2023/05/15 04:47:59;;;;;;;9.10;6.73;;;8.20;99.90;;;;;;5001543;28;20662;-58
2023/05/15 04:50:25;;;;;;;9.47;6.30;;;8.20;99.90;;;;;;5001640;28;20787;-56
2023/05/15 04:52:51;;;;;;;8.90;5.97;;;8.20;99.90;;;;;;5006641;28;20686;-56
2023/05/15 04:55:16;;;;;;;12.50;8.60;;;8.20;99.90;;;;;;4998652;28;20223;-56
2023/05/15 04:57:42;;;;;;;19.00;10.20;;;8.30;99.90;;;;;;4996563;28;20713;-56
2023/05/15 05:00:11;;;;;;;32.37;13.03;;;8.30;99.90;;;;;;5002201;28;20515;-54
2023/05/15 05:02:38;;;;;;;30.50;14.63;;;8.30;99.90;;;;;;5002872;28;20795;-56
2023/05/15 05:05:06;;;;;;;31.67;14.30;;;8.40;99.90;;;;;;4989642;28;20792;-55
2023/05/15 05:07:32;;;;;;;39.53;14.70;;;8.40;99.90;;;;;;5001864;28;20447;-55
2023/05/15 05:09:57;;;;;;;27.20;12.40;;;8.40;99.90;;;;;;4993182;28;21129;-56
2023/05/15 05:12:23;;;;;;;27.03;11.63;;;8.40;99.90;;;;;;4999373;28;20475;-56
2023/05/15 05:14:49;;;;;;;23.77;11.67;;;8.40;99.90;;;;;;5002487;28;20193;-55
2023/05/15 05:17:14;;;;;;;25.30;11.47;;;8.40;99.90;;;;;;4990351;28;20180;-52
2023/05/15 05:19:40;;;;;;;19.30;10.50;;;8.40;99.90;;;;;;4994170;28;20831;-54
2023/05/15 05:22:06;;;;;;;22.77;10.70;;;8.40;99.90;;;;;;4992502;28;20203;-55
2023/05/15 05:24:34;;;;;;;26.83;12.30;;;8.40;99.90;;;;;;5007638;28;20177;-55
2023/05/15 05:26:59;;;;;;;24.27;11.40;;;8.50;99.90;;;;;;4991573;28;20427;-56
2023/05/15 05:29:25;;;;;;;23.03;11.63;;;8.50;99.90;;;;;;5004100;28;20916;-56
2023/05/15 05:31:51;;;;;;;21.10;11.57;;;8.60;99.90;;;;;;4994566;28;20312;-57
2023/05/15 05:34:18;;;;;;;20.93;11.20;;;8.60;99.90;;;;;;5003124;28;20276;-54
2023/05/15 05:36:43;;;;;;;24.07;11.90;;;8.60;99.90;;;;;;4998221;28;20181;-58
2023/05/15 05:39:09;;;;;;;24.63;12.73;;;8.70;99.90;;;;;;5003609;28;20582;-56
2023/05/15 05:41:35;;;;;;;21.37;11.50;;;8.70;99.90;;;;;;5002844;28;20577;-57
2023/05/15 05:44:00;;;;;;;24.40;11.50;;;8.80;99.90;;;;;;4998879;28;20199;-57
2023/05/15 05:46:26;;;;;;;20.73;12.03;;;8.80;99.90;;;;;;5008070;28;20654;-56
2023/05/15 05:48:52;;;;;;;20.53;11.90;;;8.90;99.90;;;;;;5004862;28;20180;-55
2023/05/15 05:51:17;;;;;;;23.63;12.43;;;8.90;99.90;;;;;;4998396;28;20231;-55
2023/05/15 05:53:43;;;;;;;22.77;11.90;;;9.00;99.90;;;;;;5007198;28;20180;-56
2023/05/15 05:56:09;;;;;;;26.20;16.10;;;9.00;99.90;;;;;;5010086;28;20181;-57
2023/05/15 05:58:34;;;;;;;28.97;16.40;;;9.10;99.90;;;;;;5002661;28;20188;-55
2023/05/15 06:01:00;;;;;;;29.47;18.00;;;9.10;99.90;;;;;;5006092;28;20419;-56
2023/05/15 06:03:26;;;;;;;24.43;14.77;;;9.20;99.90;;;;;;5006010;28;20184;-56
2023/05/15 06:05:52;;;;;;;24.93;14.50;;;9.30;99.90;;;;;;4992352;28;20212;-56
2023/05/15 06:08:18;;;;;;;22.37;12.83;;;9.30;99.90;;;;;;5006714;28;20427;-53
2023/05/15 06:10:44;;;;;;;18.67;12.53;;;9.40;99.90;;;;;;5001278;28;20436;-56
2023/05/15 06:13:13;;;;;;;19.30;12.03;;;9.40;99.90;;;;;;5000487;28;20451;-57
2023/05/15 06:15:39;;;;;;;14.93;10.60;;;9.50;99.90;;;;;;5009080;28;21142;-55
2023/05/15 06:18:05;;;;;;;15.70;11.30;;;9.50;99.90;;;;;;5009092;28;20419;-55
2023/05/15 06:20:31;;;;;;;16.10;10.13;;;9.60;99.90;;;;;;5006875;28;20463;-56
2023/05/15 06:22:56;;;;;;;18.13;10.80;;;9.60;99.90;;;;;;5004027;28;20456;-56
2023/05/15 06:25:22;;;;;;;16.27;11.43;;;9.70;99.90;;;;;;5007417;28;20672;-56
2023/05/15 06:27:48;;;;;;;18.67;10.83;;;9.70;99.90;;;;;;5006423;28;20180;-56
2023/05/15 06:30:13;;;;;;;15.53;10.67;;;9.70;99.90;;;;;;5009161;28;20184;-55
2023/05/15 06:32:40;;;;;;;18.30;11.30;;;9.80;99.90;;;;;;4996602;28;20782;-55
2023/05/15 06:35:07;;;;;;;17.20;10.60;;;9.80;99.90;;;;;;5008279;28;20173;-56
2023/05/15 06:37:32;;;;;;;18.73;10.97;;;9.80;99.90;;;;;;5004010;28;20920;-56
2023/05/15 06:39:58;;;;;;;17.27;10.87;;;9.90;99.90;;;;;;5002473;28;20547;-55
2023/05/15 06:42:24;;;;;;;17.70;9.90;;;10.00;99.90;;;;;;5007851;28;20196;-56
2023/05/15 06:44:49;;;;;;;17.93;10.60;;;10.00;99.90;;;;;;5009098;28;20180;-56
2023/05/15 06:47:15;;;;;;;18.63;11.83;;;10.00;99.90;;;;;;5009042;28;20177;-56
2023/05/15 06:49:41;;;;;;;16.43;11.33;;;10.00;99.90;;;;;;5007407;28;20191;-56
2023/05/15 06:52:06;;;;;;;14.73;9.03;;;10.00;99.90;;;;;;5007765;28;20223;-56
2023/05/15 06:54:32;;;;;;;10.67;7.67;;;10.00;99.90;;;;;;5008362;28;20249;-56
2023/05/15 06:56:58;;;;;;;10.20;7.57;;;10.00;99.90;;;;;;5004512;28;20216;-55
2023/05/15 06:59:23;;;;;;;10.80;8.50;;;10.00;99.90;;;;;;5006816;28;20204;-55
2023/05/15 07:01:49;;;;;;;12.00;7.47;;;10.10;99.90;;;;;;5008506;28;20204;-55
2023/05/15 07:04:15;;;;;;;12.80;8.50;;;10.10;99.90;;;;;;5007012;28;20184;-56
2023/05/15 07:06:41;;;;;;;13.30;8.90;;;10.10;99.90;;;;;;5002513;28;20270;-56
2023/05/15 07:09:06;;;;;;;12.73;7.87;;;10.20;99.90;;;;;;5006984;28;20263;-56
2023/05/15 07:11:36;;;;;;;10.80;8.20;;;10.20;99.90;;;;;;4993300;28;20447;-55
2023/05/15 07:14:02;;;;;;;12.37;7.87;;;10.20;99.90;;;;;;4990605;28;20193;-56
2023/05/15 07:16:28;;;;;;;12.50;6.97;;;10.20;99.90;;;;;;4999516;28;20412;-57
2023/05/15 07:18:54;;;;;;;13.57;7.07;;;10.30;99.90;;;;;;4998049;28;20471;-56
2023/05/15 07:21:19;;;;;;;9.70;7.00;;;10.30;99.90;;;;;;5001502;28;21103;-56
2023/05/15 07:23:45;;;;;;;10.20;7.10;;;10.30;99.90;;;;;;5032195;28;20238;-57
2023/05/15 07:26:13;;;;;;;9.70;7.40;;;10.30;99.90;;;;;;4999728;28;20173;-58
2023/05/15 07:28:38;;;;;;;12.80;7.57;;;10.40;99.90;;;;;;4994506;28;20173;-58
2023/05/15 07:31:04;;;;;;;13.40;8.13;;;10.40;99.90;;;;;;5001082;28;20428;-57
2023/05/15 07:33:30;;;;;;;11.93;7.40;;;10.40;99.90;;;;;;4997992;28;20317;-55
2023/05/15 07:35:55;;;;;;;9.37;6.50;;;10.40;99.90;;;;;;4996052;28;20264;-56
2023/05/15 07:38:21;;;;;;;9.53;6.30;;;10.50;99.90;;;;;;4994415;28;20271;-56
2023/05/15 07:40:46;;;;;;;11.37;7.43;;;10.50;99.90;;;;;;4999247;28;20295;-55
2023/05/15 07:43:12;;;;;;;15.17;6.50;;;10.50;99.90;;;;;;4996855;28;20237;-57
2023/05/15 07:45:38;;;;;;;8.47;5.93;;;10.60;99.90;;;;;;4996579;28;20181;-56
2023/05/15 07:48:17;;;;;;;8.20;6.53;;;10.60;99.90;;;;;;4997719;28;20745;-55
2023/05/15 07:50:45;;;;;;;11.50;7.53;;;10.60;99.90;;;;;;4994602;28;20184;-57
2023/05/15 07:53:11;;;;;;;9.60;6.80;;;10.70;99.90;;;;;;4997721;28;20947;-56
2023/05/15 07:55:36;;;;;;;7.97;6.30;;;10.70;99.90;;;;;;5001373;28;20416;-57
2023/05/15 07:58:02;;;;;;;11.10;7.07;;;10.70;99.90;;;;;;5002530;28;20185;-54
2023/05/15 08:00:28;;;;;;;12.27;6.40;;;10.80;99.90;;;;;;4997173;28;20267;-56
2023/05/15 08:02:53;;;;;;;7.33;5.80;;;10.80;99.90;;;;;;4999231;28;20295;-57
2023/05/15 08:05:19;;;;;;;9.80;6.30;;;10.90;99.90;;;;;;4998966;28;20629;-57
2023/05/15 08:07:45;;;;;;;9.03;6.00;;;10.90;99.90;;;;;;4990089;28;20280;-56
2023/05/15 08:10:10;;;;;;;6.33;5.20;;;10.90;99.90;;;;;;4996012;28;20594;-56
2023/05/15 08:12:36;;;;;;;5.97;5.00;;;10.90;99.90;;;;;;5001458;28;20216;-56
2023/05/15 08:15:02;;;;;;;6.40;4.60;;;11.00;99.90;;;;;;4995891;28;20489;-53
2023/05/15 08:17:28;;;;;;;7.80;4.90;;;11.10;99.90;;;;;;5003347;28;20916;-57
2023/05/15 08:19:54;;;;;;;8.30;5.37;;;11.10;99.90;;;;;;4985559;28;20530;-59
2023/05/15 08:22:20;;;;;;;6.80;4.37;;;11.20;99.90;;;;;;4997183;28;20623;-56
2023/05/15 08:24:46;;;;;;;5.93;4.40;;;11.30;99.90;;;;;;4997668;28;20439;-57
2023/05/15 08:27:11;;;;;;;8.37;5.03;;;11.30;99.90;;;;;;4994751;28;20181;-56
2023/05/15 08:29:37;;;;;;;14.50;5.13;;;11.40;99.90;;;;;;4998765;28;20192;-54
2023/05/15 08:32:08;;;;;;;6.80;4.93;;;11.40;99.90;;;;;;5002088;28;20733;-55
2023/05/15 08:34:33;;;;;;;10.90;4.80;;;11.30;99.90;;;;;;4994894;28;20736;-57
2023/05/15 08:36:59;;;;;;;7.50;5.00;;;11.40;99.90;;;;;;4999866;28;21008;-57
2023/05/15 08:39:25;;;;;;;7.97;4.90;;;11.40;99.90;;;;;;4995223;28;20208;-55
2023/05/15 08:42:07;;;;;;;9.57;5.03;;;11.40;99.90;;;;;;5003668;28;20258;-56
2023/05/15 08:44:34;;;;;;;7.40;5.60;;;11.50;99.90;;;;;;4996114;28;20593;-56
2023/05/15 08:47:00;;;;;;;5.37;4.80;;;11.50;99.90;;;;;;5004071;28;20490;-55
2023/05/15 08:49:51;;;;;;;6.17;4.63;;;11.50;99.90;;;;;;5002424;28;20864;-57
2023/05/15 08:52:16;;;;;;;7.13;5.20;;;11.60;99.90;;;;;;5004173;28;20828;-55
2023/05/15 08:54:42;;;;;;;6.80;5.23;;;11.60;99.90;;;;;;5000748;28;20509;-55
2023/05/15 08:57:09;;;;;;;5.30;4.70;;;11.70;99.90;;;;;;4993595;28;20196;-56
2023/05/15 08:59:36;;;;;;;7.30;5.97;;;11.70;99.90;;;;;;4993434;28;20307;-56
2023/05/15 09:02:01;;;;;;;7.70;5.73;;;11.70;99.90;;;;;;4997587;28;20459;-57
2023/05/15 09:04:27;;;;;;;10.23;6.20;;;11.70;99.90;;;;;;5000517;28;20442;-55
2023/05/15 09:06:53;;;;;;;7.60;5.00;;;11.60;99.90;;;;;;5000026;28;20772;-56
2023/05/15 09:09:21;;;;;;;7.30;5.37;;;11.70;99.90;;;;;;4994026;28;20440;-57
2023/05/15 09:11:47;;;;;;;7.97;6.00;;;11.80;99.90;;;;;;4995748;28;20916;-56
2023/05/15 09:14:13;;;;;;;8.20;6.00;;;11.90;99.90;;;;;;4994735;28;20455;-56
2023/05/15 09:16:39;;;;;;;12.20;6.20;;;12.00;99.90;;;;;;5001216;28;20754;-56
2023/05/15 09:19:05;;;;;;;8.27;5.97;;;12.10;99.90;;;;;;4996850;28;20299;-56
2023/05/15 09:21:32;;;;;;;7.27;5.77;;;12.20;99.90;;;;;;5000817;28;21121;-57
2023/05/15 09:24:18;;;;;;;7.30;6.03;;;12.40;99.90;;;;;;5002048;28;20447;-56
2023/05/15 09:26:45;;;;;;;8.53;6.47;;;12.60;99.90;;;;;;5000246;28;20420;-55
2023/05/15 09:29:14;;;;;;;9.13;7.10;;;12.90;99.90;;;;;;5001260;28;20443;-55
2023/05/15 09:31:40;;;;;;;8.20;6.50;;;13.10;99.90;;;;;;5000644;28;20443;-55
2023/05/15 09:34:08;;;;;;;7.87;6.40;;;13.20;99.90;;;;;;4992834;28;21218;-53
2023/05/15 09:36:34;;;;;;;19.47;6.70;;;13.50;99.90;;;;;;5001586;28;20485;-56
2023/05/15 09:39:00;;;;;;;12.37;7.67;;;13.60;99.90;;;;;;4999394;28;20558;-55
2023/05/15 09:41:27;;;;;;;10.90;6.30;;;13.60;99.90;;;;;;5006728;28;20223;-55
2023/05/15 09:43:55;;;;;;;9.30;6.20;;;13.50;99.90;;;;;;5007305;28;20857;-55
2023/05/15 09:46:22;;;;;;;7.17;5.60;;;13.50;99.90;;;;;;5009504;28;20434;-57
2023/05/15 09:48:48;;;;;;;8.20;6.23;;;13.50;99.90;;;;;;5004149;28;20442;-56
2023/05/15 09:51:16;;;;;;;7.90;5.47;;;13.50;99.90;;;;;;5006539;28;20430;-56
2023/05/15 09:53:46;;;;;;;7.00;5.90;;;13.50;99.90;;;;;;5003365;28;20527;-55
2023/05/15 09:56:13;;;;;;;7.90;5.47;;;13.50;99.90;;;;;;5000851;28;20502;-56
2023/05/15 09:58:59;;;;;;;6.63;5.53;;;13.50;99.90;;;;;;5006269;28;20423;-57
2023/05/15 10:01:26;;;;;;;7.30;5.90;;;13.50;99.90;;;;;;4997042;28;20494;-56
2023/05/15 10:04:06;;;;;;;6.83;5.83;;;13.50;99.90;;;;;;5005413;28;20918;-55
2023/05/15 10:06:51;;;;;;;7.30;6.00;;;13.70;99.90;;;;;;5002562;28;20481;-54
2023/05/15 10:09:16;;;;;;;7.90;6.43;;;14.00;99.90;;;;;;5002513;28;20450;-57
2023/05/15 10:11:45;;;;;;;6.93;6.20;;;14.20;99.90;;;;;;5002901;28;20450;-54
2023/05/15 10:14:12;;;;;;;7.57;5.97;;;14.50;99.90;;;;;;5006767;28;20238;-54
2023/05/15 10:16:40;;;;;;;6.50;5.37;;;14.70;99.90;;;;;;5000945;28;20439;-54
2023/05/15 10:19:08;;;;;;;7.97;5.43;;;14.80;99.90;;;;;;5003510;28;20466;-54
2023/05/15 10:21:36;;;;;;;5.33;4.80;;;15.00;99.90;;;;;;4993996;28;20517;-52
2023/05/15 10:24:03;;;;;;;5.43;4.93;;;14.90;99.90;;;;;;4995503;28;20428;-54
2023/05/15 10:26:40;;;;;;;5.37;4.60;;;14.80;99.90;;;;;;5005308;28;20487;-56
2023/05/15 10:29:08;;;;;;;5.63;4.70;;;14.90;99.90;;;;;;5000376;28;20443;-56
2023/05/15 10:31:37;;;;;;;6.80;4.73;;;15.00;99.90;;;;;;4999427;28;20490;-54
2023/05/15 10:34:06;;;;;;;5.97;4.33;;;15.00;99.90;;;;;;5002055;28;20784;-56
2023/05/15 10:36:33;;;;;;;7.00;5.60;;;15.00;99.90;;;;;;5004391;28;20453;-53
2023/05/15 10:39:00;;;;;;;6.10;4.57;;;14.90;99.90;;;;;;5001129;28;20554;-54
2023/05/15 10:41:28;;;;;;;7.07;5.17;;;14.80;99.90;;;;;;4993462;28;20578;-55
2023/05/15 10:43:56;;;;;;;6.93;4.97;;;14.70;99.90;;;;;;5002529;28;21043;-55
2023/05/15 10:46:23;;;;;;;5.30;4.40;;;14.70;99.90;;;;;;4999590;28;20503;-54
2023/05/15 10:48:49;;;;;;;7.07;4.20;;;14.70;99.90;;;;;;4999985;28;20443;-55
2023/05/15 10:51:25;;;;;;;6.63;4.77;;;14.60;99.90;;;;;;4997255;28;20452;-56
2023/05/15 10:53:51;;;;;;;3.23;2.90;;;14.50;99.90;;;;;;4998822;28;20442;-57
2023/05/15 10:56:17;;;;;;;6.40;5.03;;;14.30;99.90;;;;;;4999543;28;21260;-57
2023/05/15 10:58:49;;;;;;;6.93;3.00;;;14.00;99.90;;;;;;4994413;28;20431;-56
2023/05/15 11:01:28;;;;;;;6.10;3.03;;;13.80;99.90;;;;;;5001389;28;20185;-56
2023/05/15 11:04:14;;;;;;;4.57;2.53;;;13.50;99.90;;;;;;5001372;28;20458;-56
2023/05/15 11:06:42;;;;;;;2.73;2.13;;;13.10;99.90;;;;;;4997171;28;20444;-55
2023/05/15 11:09:23;;;;;;;2.33;2.13;;;12.90;99.90;;;;;;5001236;28;20918;-56
2023/05/15 11:11:52;;;;;;;2.67;2.33;;;12.80;99.90;;;;;;5003067;28;20448;-55
2023/05/15 11:14:18;;;;;;;2.80;2.60;;;12.70;99.90;;;;;;4997520;28;20948;-54
2023/05/15 11:16:52;;;;;;;3.50;3.20;;;12.70;99.90;;;;;;5003694;28;20427;-56
2023/05/15 11:19:36;;;;;;;4.93;3.67;;;12.80;99.90;;;;;;4996770;28;20504;-57
2023/05/15 11:22:07;;;;;;;5.00;3.90;;;12.80;99.90;;;;;;5014747;28;20521;-55
2023/05/15 11:24:52;;;;;;;14.63;4.67;;;12.80;99.90;;;;;;5000867;28;20805;-57
2023/05/15 11:27:28;;;;;;;5.17;3.70;;;12.90;99.90;;;;;;5003113;28;20431;-55
2023/05/15 11:30:20;;;;;;;6.10;4.07;;;12.90;99.90;;;;;;4998478;28;20561;-57
2023/05/15 11:32:46;;;;;;;4.63;3.67;;;13.10;99.90;;;;;;4992964;28;20509;-56
2023/05/15 11:35:13;;;;;;;5.20;3.50;;;13.20;99.90;;;;;;4995050;28;20446;-57
2023/05/15 11:37:53;;;;;;;7.13;3.30;;;13.40;99.90;;;;;;4994942;28;20187;-56
2023/05/15 11:40:20;;;;;;;4.13;2.90;;;13.60;99.90;;;;;;4998444;28;20499;-56
2023/05/15 11:43:03;;;;;;;3.17;2.70;;;13.70;99.90;;;;;;4998267;28;22406;-56
2023/05/15 11:45:34;;;;;;;7.17;3.07;;;13.80;99.90;;;;;;4987027;28;20428;-54
2023/05/15 11:48:02;;;;;;;3.70;3.40;;;13.80;99.90;;;;;;5001471;28;20461;-53
2023/05/15 11:50:31;;;;;;;5.90;3.50;;;14.20;99.90;;;;;;4997659;28;20447;-54
2023/05/15 11:52:57;;;;;;;5.80;3.60;;;14.70;99.90;;;;;;4999476;28;20557;-54
2023/05/15 11:55:24;;;;;;;4.03;3.13;;;15.30;99.90;;;;;;4996860;28;20455;-52
2023/05/15 11:57:50;;;;;;;4.80;3.23;;;15.70;99.90;;;;;;4994667;28;21084;-53
2023/05/15 12:00:15;;;;;;;3.70;3.10;;;16.10;99.90;;;;;;4998021;28;20455;-54
2023/05/15 12:02:41;;;;;;;5.70;2.70;;;16.40;99.90;;;;;;4997829;28;20653;-53
2023/05/15 12:05:07;;;;;;;2.90;2.60;;;16.60;99.90;;;;;;4994596;28;20180;-53
2023/05/15 12:07:38;;;;;;;3.10;2.07;;;16.90;99.90;;;;;;4996488;28;20181;-56
2023/05/15 12:10:03;;;;;;;2.03;1.93;;;17.00;88.10;;;;;;4996753;28;20424;-54
2023/05/15 12:12:29;;;;;;;2.30;2.10;;;17.20;92.50;;;;;;4993543;28;20455;-55
2023/05/15 12:14:59;;;;;;;2.33;2.13;;;17.30;86.60;;;;;;4998513;28;20436;-57
2023/05/15 12:17:24;;;;;;;4.67;2.30;;;17.50;90.00;;;;;;4994255;28;20184;-55
2023/05/15 12:19:51;;;;;;;2.20;2.00;;;17.70;84.20;;;;;;5002091;28;20835;-57
2023/05/15 12:22:17;;;;;;;4.77;2.10;;;17.80;76.60;;;;;;4993782;28;20220;-55
2023/05/15 12:24:44;;;;;;;3.93;2.43;;;18.00;74.60;;;;;;4998383;28;20524;-56
2023/05/15 12:27:11;;;;;;;2.70;2.23;;;18.20;82.70;;;;;;5002456;28;20512;-57
2023/05/15 12:29:39;;;;;;;2.57;2.37;;;18.40;71.90;;;;;;5002342;28;20432;-56
2023/05/15 12:32:05;;;;;;;2.70;2.50;;;18.50;63.50;;;;;;5001293;28;20556;-56
2023/05/15 12:34:31;;;;;;;2.50;2.30;;;18.60;61.20;;;;;;4995861;28;20557;-56
2023/05/15 12:36:58;;;;;;;2.50;2.30;;;18.70;60.10;;;;;;4996914;28;20461;-55
2023/05/15 12:39:25;;;;;;;3.27;2.70;;;18.80;61.90;;;;;;4991764;28;20212;-58
2023/05/15 12:41:53;;;;;;;2.50;2.30;;;19.00;66.00;;;;;;4991734;28;20451;-60
2023/05/15 12:44:19;;;;;;;2.90;2.60;;;19.10;66.20;;;;;;5003451;28;20427;-61
2023/05/15 12:46:46;;;;;;;3.03;2.83;;;19.30;57.20;;;;;;4992019;28;20438;-59
2023/05/15 12:49:12;;;;;;;2.53;2.33;;;19.40;57.60;;;;;;4999740;28;20461;-59